sensor_id;sensor_type;location;lat;lon;timestamp;P1;durP1;ratioP1;P2;durP2;ratioP2
32026;SDS011;18543;50.848;4.596;2022-11-14T00:00:58;9.55;;;8.45;;
32026;SDS011;18543;50.848;4.596;2022-11-14T00:03:25;9.70;;;8.70;;
32026;SDS011;18543;50.848;4.596;2022-11-14T00:05:52;10.23;;;8.57;;
32026;SDS011;18543;50.848;4.596;2022-11-14T00:08:20;10.55;;;9.00;;
32026;SDS011;18543;50.848;4.596;2022-11-14T00:10:49;10.38;;;8.77;;
32026;SDS011;18543;50.848;4.596;2022-11-14T00:13:17;10.10;;;8.77;;
32026;SDS011;18543;50.848;4.596;2022-11-14T00:15:47;10.68;;;9.23;;
32026;SDS011;18543;50.848;4.596;2022-11-14T00:18:16;9.75;;;8.75;;
32026;SDS011;18543;50.848;4.596;2022-11-14T00:20:46;11.40;;;9.10;;
32026;SDS011;18543;50.848;4.596;2022-11-14T00:23:14;10.45;;;8.55;;
32026;SDS011;18543;50.848;4.596;2022-11-14T00:25:42;12.55;;;9.10;;
32026;SDS011;18543;50.848;4.596;2022-11-14T00:28:12;10.63;;;9.13;;
32026;SDS011;18543;50.848;4.596;2022-11-14T00:30:39;10.05;;;8.43;;
32026;SDS011;18543;50.848;4.596;2022-11-14T00:33:05;10.18;;;8.73;;
32026;SDS011;18543;50.848;4.596;2022-11-14T00:35:32;11.15;;;9.02;;
32026;SDS011;18543;50.848;4.596;2022-11-14T00:37:59;10.45;;;9.20;;
32026;SDS011;18543;50.848;4.596;2022-11-14T00:40:26;9.48;;;8.45;;
32026;SDS011;18543;50.848;4.596;2022-11-14T00:42:53;10.35;;;9.25;;
32026;SDS011;18543;50.848;4.596;2022-11-14T00:45:20;10.50;;;8.93;;
32026;SDS011;18543;50.848;4.596;2022-11-14T00:47:47;11.57;;;9.25;;
32026;SDS011;18543;50.848;4.596;2022-11-14T00:50:17;10.82;;;8.68;;
32026;SDS011;18543;50.848;4.596;2022-11-14T00:52:43;11.40;;;8.98;;
32026;SDS011;18543;50.848;4.596;2022-11-14T00:55:10;10.75;;;9.07;;
32026;SDS011;18543;50.848;4.596;2022-11-14T00:57:37;10.95;;;9.20;;
32026;SDS011;18543;50.848;4.596;2022-11-14T01:00:05;11.30;;;9.57;;
32026;SDS011;18543;50.848;4.596;2022-11-14T01:02:32;10.07;;;8.52;;
32026;SDS011;18543;50.848;4.596;2022-11-14T01:04:59;10.75;;;9.55;;
32026;SDS011;18543;50.848;4.596;2022-11-14T01:07:27;12.27;;;9.23;;
32026;SDS011;18543;50.848;4.596;2022-11-14T01:09:54;12.85;;;9.80;;
32026;SDS011;18543;50.848;4.596;2022-11-14T01:12:21;11.85;;;8.68;;
32026;SDS011;18543;50.848;4.596;2022-11-14T01:14:48;9.82;;;8.63;;
32026;SDS011;18543;50.848;4.596;2022-11-14T01:17:14;10.10;;;8.93;;
32026;SDS011;18543;50.848;4.596;2022-11-14T01:19:42;10.40;;;8.75;;
32026;SDS011;18543;50.848;4.596;2022-11-14T01:22:08;9.98;;;8.93;;
32026;SDS011;18543;50.848;4.596;2022-11-14T01:24:35;11.35;;;8.88;;
32026;SDS011;18543;50.848;4.596;2022-11-14T01:27:02;10.55;;;9.15;;
32026;SDS011;18543;50.848;4.596;2022-11-14T01:29:30;11.17;;;9.07;;
32026;SDS011;18543;50.848;4.596;2022-11-14T01:31:57;11.48;;;9.50;;
32026;SDS011;18543;50.848;4.596;2022-11-14T01:34:23;10.65;;;9.40;;
32026;SDS011;18543;50.848;4.596;2022-11-14T01:36:51;10.98;;;9.75;;
32026;SDS011;18543;50.848;4.596;2022-11-14T01:39:18;10.00;;;8.90;;
32026;SDS011;18543;50.848;4.596;2022-11-14T01:41:46;13.40;;;9.23;;
32026;SDS011;18543;50.848;4.596;2022-11-14T01:44:16;11.10;;;8.45;;
32026;SDS011;18543;50.848;4.596;2022-11-14T01:47:02;10.82;;;8.95;;
32026;SDS011;18543;50.848;4.596;2022-11-14T01:49:33;11.23;;;9.02;;
32026;SDS011;18543;50.848;4.596;2022-11-14T01:52:20;10.30;;;8.90;;
32026;SDS011;18543;50.848;4.596;2022-11-14T01:54:51;10.60;;;9.02;;
32026;SDS011;18543;50.848;4.596;2022-11-14T01:57:22;12.30;;;8.93;;
32026;SDS011;18543;50.848;4.596;2022-11-14T02:00:00;11.60;;;9.43;;
32026;SDS011;18543;50.848;4.596;2022-11-14T02:02:31;11.52;;;9.75;;
32026;SDS011;18543;50.848;4.596;2022-11-14T02:04:59;11.40;;;9.10;;
32026;SDS011;18543;50.848;4.596;2022-11-14T02:07:32;10.48;;;9.15;;
32026;SDS011;18543;50.848;4.596;2022-11-14T02:10:03;11.07;;;9.50;;
32026;SDS011;18543;50.848;4.596;2022-11-14T02:12:35;10.77;;;9.45;;
32026;SDS011;18543;50.848;4.596;2022-11-14T02:15:03;12.90;;;9.30;;
32026;SDS011;18543;50.848;4.596;2022-11-14T02:17:30;9.90;;;8.70;;
32026;SDS011;18543;50.848;4.596;2022-11-14T02:22:37;11.05;;;9.35;;
32026;SDS011;18543;50.848;4.596;2022-11-14T02:25:06;9.90;;;8.38;;
32026;SDS011;18543;50.848;4.596;2022-11-14T02:27:34;9.93;;;8.90;;
32026;SDS011;18543;50.848;4.596;2022-11-14T02:30:06;10.00;;;9.00;;
32026;SDS011;18543;50.848;4.596;2022-11-14T02:32:39;10.32;;;8.63;;
32026;SDS011;18543;50.848;4.596;2022-11-14T02:35:25;11.27;;;9.40;;
32026;SDS011;18543;50.848;4.596;2022-11-14T02:37:52;10.15;;;8.75;;
32026;SDS011;18543;50.848;4.596;2022-11-14T02:40:19;10.75;;;8.73;;
32026;SDS011;18543;50.848;4.596;2022-11-14T02:42:46;11.75;;;8.95;;
32026;SDS011;18543;50.848;4.596;2022-11-14T02:45:12;9.35;;;8.35;;
32026;SDS011;18543;50.848;4.596;2022-11-14T02:47:39;10.80;;;8.68;;
32026;SDS011;18543;50.848;4.596;2022-11-14T02:50:06;11.50;;;9.07;;
32026;SDS011;18543;50.848;4.596;2022-11-14T02:52:33;12.10;;;9.15;;
32026;SDS011;18543;50.848;4.596;2022-11-14T02:55:00;10.25;;;9.05;;
32026;SDS011;18543;50.848;4.596;2022-11-14T02:57:27;10.80;;;9.00;;
32026;SDS011;18543;50.848;4.596;2022-11-14T02:59:54;9.05;;;8.15;;
32026;SDS011;18543;50.848;4.596;2022-11-14T03:02:21;10.20;;;8.52;;
32026;SDS011;18543;50.848;4.596;2022-11-14T03:04:47;10.77;;;8.40;;
32026;SDS011;18543;50.848;4.596;2022-11-14T03:07:14;10.07;;;9.07;;
32026;SDS011;18543;50.848;4.596;2022-11-14T03:09:41;8.85;;;7.95;;
32026;SDS011;18543;50.848;4.596;2022-11-14T03:12:08;9.30;;;8.30;;
32026;SDS011;18543;50.848;4.596;2022-11-14T03:14:35;10.15;;;8.40;;
32026;SDS011;18543;50.848;4.596;2022-11-14T03:17:02;10.52;;;8.55;;
32026;SDS011;18543;50.848;4.596;2022-11-14T03:19:29;10.48;;;8.48;;
32026;SDS011;18543;50.848;4.596;2022-11-14T03:21:55;10.57;;;8.40;;
32026;SDS011;18543;50.848;4.596;2022-11-14T03:24:22;10.43;;;8.38;;
32026;SDS011;18543;50.848;4.596;2022-11-14T03:26:49;11.63;;;8.20;;
32026;SDS011;18543;50.848;4.596;2022-11-14T03:29:15;9.85;;;8.25;;
32026;SDS011;18543;50.848;4.596;2022-11-14T03:31:42;11.02;;;8.48;;
32026;SDS011;18543;50.848;4.596;2022-11-14T03:34:09;9.85;;;8.45;;
32026;SDS011;18543;50.848;4.596;2022-11-14T03:36:36;8.98;;;7.88;;
32026;SDS011;18543;50.848;4.596;2022-11-14T03:39:03;10.60;;;7.88;;
32026;SDS011;18543;50.848;4.596;2022-11-14T03:41:30;11.07;;;8.18;;
32026;SDS011;18543;50.848;4.596;2022-11-14T03:43:57;9.93;;;8.40;;
32026;SDS011;18543;50.848;4.596;2022-11-14T03:46:24;9.32;;;8.13;;
32026;SDS011;18543;50.848;4.596;2022-11-14T03:48:51;10.52;;;8.80;;
32026;SDS011;18543;50.848;4.596;2022-11-14T03:51:17;9.95;;;8.52;;
32026;SDS011;18543;50.848;4.596;2022-11-14T03:53:44;10.80;;;8.60;;
32026;SDS011;18543;50.848;4.596;2022-11-14T03:56:11;9.18;;;7.90;;
32026;SDS011;18543;50.848;4.596;2022-11-14T03:58:38;10.95;;;7.82;;
32026;SDS011;18543;50.848;4.596;2022-11-14T04:01:04;9.63;;;8.52;;
32026;SDS011;18543;50.848;4.596;2022-11-14T04:03:31;10.57;;;8.55;;
32026;SDS011;18543;50.848;4.596;2022-11-14T04:05:58;10.45;;;8.40;;
32026;SDS011;18543;50.848;4.596;2022-11-14T04:08:25;9.85;;;8.25;;
32026;SDS011;18543;50.848;4.596;2022-11-14T04:10:54;9.18;;;7.85;;
32026;SDS011;18543;50.848;4.596;2022-11-14T04:13:21;10.38;;;8.13;;
32026;SDS011;18543;50.848;4.596;2022-11-14T04:15:53;9.18;;;7.90;;
32026;SDS011;18543;50.848;4.596;2022-11-14T04:18:21;10.70;;;8.20;;
32026;SDS011;18543;50.848;4.596;2022-11-14T04:20:48;9.25;;;8.25;;
32026;SDS011;18543;50.848;4.596;2022-11-14T04:23:15;9.60;;;7.80;;
32026;SDS011;18543;50.848;4.596;2022-11-14T04:25:43;9.60;;;7.53;;
32026;SDS011;18543;50.848;4.596;2022-11-14T04:28:10;10.43;;;7.73;;
32026;SDS011;18543;50.848;4.596;2022-11-14T04:30:38;9.38;;;7.85;;
32026;SDS011;18543;50.848;4.596;2022-11-14T04:33:05;9.20;;;7.90;;
32026;SDS011;18543;50.848;4.596;2022-11-14T04:35:32;8.52;;;7.68;;
32026;SDS011;18543;50.848;4.596;2022-11-14T04:37:59;9.25;;;8.23;;
32026;SDS011;18543;50.848;4.596;2022-11-14T04:40:25;9.40;;;8.30;;
32026;SDS011;18543;50.848;4.596;2022-11-14T04:42:52;9.68;;;7.68;;
32026;SDS011;18543;50.848;4.596;2022-11-14T04:45:19;8.50;;;7.57;;
32026;SDS011;18543;50.848;4.596;2022-11-14T04:47:46;8.68;;;7.50;;
32026;SDS011;18543;50.848;4.596;2022-11-14T04:50:16;9.75;;;8.32;;
32026;SDS011;18543;50.848;4.596;2022-11-14T04:52:43;8.63;;;7.65;;
32026;SDS011;18543;50.848;4.596;2022-11-14T04:55:09;8.95;;;7.70;;
32026;SDS011;18543;50.848;4.596;2022-11-14T04:57:37;9.15;;;7.80;;
32026;SDS011;18543;50.848;4.596;2022-11-14T05:00:04;8.63;;;7.72;;
32026;SDS011;18543;50.848;4.596;2022-11-14T05:02:31;8.93;;;7.57;;
32026;SDS011;18543;50.848;4.596;2022-11-14T05:04:58;8.95;;;7.30;;
32026;SDS011;18543;50.848;4.596;2022-11-14T05:07:25;10.40;;;8.18;;
32026;SDS011;18543;50.848;4.596;2022-11-14T05:09:52;9.15;;;7.47;;
32026;SDS011;18543;50.848;4.596;2022-11-14T05:12:18;8.82;;;7.47;;
32026;SDS011;18543;50.848;4.596;2022-11-14T05:14:45;10.55;;;8.35;;
32026;SDS011;18543;50.848;4.596;2022-11-14T05:17:12;9.57;;;8.02;;
32026;SDS011;18543;50.848;4.596;2022-11-14T05:19:39;8.43;;;7.50;;
32026;SDS011;18543;50.848;4.596;2022-11-14T05:22:05;9.02;;;7.40;;
32026;SDS011;18543;50.848;4.596;2022-11-14T05:24:32;11.18;;;7.72;;
32026;SDS011;18543;50.848;4.596;2022-11-14T05:26:59;9.52;;;7.90;;
32026;SDS011;18543;50.848;4.596;2022-11-14T05:29:26;8.90;;;7.80;;
32026;SDS011;18543;50.848;4.596;2022-11-14T05:31:52;10.20;;;8.30;;
32026;SDS011;18543;50.848;4.596;2022-11-14T05:34:19;9.32;;;7.45;;
32026;SDS011;18543;50.848;4.596;2022-11-14T05:36:46;10.13;;;7.90;;
32026;SDS011;18543;50.848;4.596;2022-11-14T05:39:13;9.35;;;7.10;;
32026;SDS011;18543;50.848;4.596;2022-11-14T05:41:40;8.85;;;7.20;;
32026;SDS011;18543;50.848;4.596;2022-11-14T05:44:07;9.73;;;7.60;;
32026;SDS011;18543;50.848;4.596;2022-11-14T05:46:33;8.27;;;7.45;;
32026;SDS011;18543;50.848;4.596;2022-11-14T05:49:00;8.57;;;7.68;;
32026;SDS011;18543;50.848;4.596;2022-11-14T05:51:27;9.77;;;7.60;;
32026;SDS011;18543;50.848;4.596;2022-11-14T05:53:54;10.73;;;8.20;;
32026;SDS011;18543;50.848;4.596;2022-11-14T05:56:20;9.57;;;7.65;;
32026;SDS011;18543;50.848;4.596;2022-11-14T05:58:47;9.48;;;7.63;;
32026;SDS011;18543;50.848;4.596;2022-11-14T06:01:15;8.73;;;7.53;;
32026;SDS011;18543;50.848;4.596;2022-11-14T06:03:44;9.88;;;7.97;;
32026;SDS011;18543;50.848;4.596;2022-11-14T06:06:16;9.38;;;7.32;;
32026;SDS011;18543;50.848;4.596;2022-11-14T06:08:45;8.35;;;7.25;;
32026;SDS011;18543;50.848;4.596;2022-11-14T06:11:19;8.40;;;7.30;;
32026;SDS011;18543;50.848;4.596;2022-11-14T06:13:46;9.50;;;7.32;;
32026;SDS011;18543;50.848;4.596;2022-11-14T06:16:15;9.43;;;8.13;;
32026;SDS011;18543;50.848;4.596;2022-11-14T06:18:43;8.88;;;7.50;;
32026;SDS011;18543;50.848;4.596;2022-11-14T06:21:11;8.68;;;7.18;;
32026;SDS011;18543;50.848;4.596;2022-11-14T06:23:41;8.25;;;7.40;;
32026;SDS011;18543;50.848;4.596;2022-11-14T06:26:11;8.35;;;7.55;;
32026;SDS011;18543;50.848;4.596;2022-11-14T06:28:50;9.73;;;7.30;;
32026;SDS011;18543;50.848;4.596;2022-11-14T06:31:18;7.85;;;7.05;;
32026;SDS011;18543;50.848;4.596;2022-11-14T06:36:13;19.48;;;14.45;;
32026;SDS011;18543;50.848;4.596;2022-11-14T06:38:40;22.08;;;12.23;;
32026;SDS011;18543;50.848;4.596;2022-11-14T06:41:12;15.85;;;11.18;;
32026;SDS011;18543;50.848;4.596;2022-11-14T06:43:47;14.48;;;10.32;;
32026;SDS011;18543;50.848;4.596;2022-11-14T06:46:17;16.88;;;10.40;;
32026;SDS011;18543;50.848;4.596;2022-11-14T06:48:46;14.95;;;10.18;;
32026;SDS011;18543;50.848;4.596;2022-11-14T06:53:41;19.70;;;10.95;;
32026;SDS011;18543;50.848;4.596;2022-11-14T06:56:11;17.40;;;10.57;;
32026;SDS011;18543;50.848;4.596;2022-11-14T06:58:40;19.23;;;12.70;;
32026;SDS011;18543;50.848;4.596;2022-11-14T07:01:27;17.98;;;11.90;;
32026;SDS011;18543;50.848;4.596;2022-11-14T07:03:54;35.00;;;17.05;;
32026;SDS011;18543;50.848;4.596;2022-11-14T07:06:24;48.95;;;16.98;;
32026;SDS011;18543;50.848;4.596;2022-11-14T07:08:52;44.67;;;15.80;;
32026;SDS011;18543;50.848;4.596;2022-11-14T07:11:21;37.50;;;15.13;;
32026;SDS011;18543;50.848;4.596;2022-11-14T07:13:58;31.02;;;14.43;;
32026;SDS011;18543;50.848;4.596;2022-11-14T07:16:29;34.78;;;14.68;;
32026;SDS011;18543;50.848;4.596;2022-11-14T07:19:03;36.75;;;15.40;;
32026;SDS011;18543;50.848;4.596;2022-11-14T07:21:34;44.13;;;14.10;;
32026;SDS011;18543;50.848;4.596;2022-11-14T07:24:01;31.65;;;15.07;;
32026;SDS011;18543;50.848;4.596;2022-11-14T07:26:28;26.23;;;14.73;;
32026;SDS011;18543;50.848;4.596;2022-11-14T07:28:57;30.92;;;13.98;;
32026;SDS011;18543;50.848;4.596;2022-11-14T07:31:28;37.17;;;15.02;;
32026;SDS011;18543;50.848;4.596;2022-11-14T07:33:54;34.95;;;14.10;;
32026;SDS011;18543;50.848;4.596;2022-11-14T07:36:21;48.75;;;16.17;;
32026;SDS011;18543;50.848;4.596;2022-11-14T07:38:49;47.67;;;14.90;;
32026;SDS011;18543;50.848;4.596;2022-11-14T07:41:16;55.83;;;15.55;;
32026;SDS011;18543;50.848;4.596;2022-11-14T07:43:43;51.43;;;15.20;;
32026;SDS011;18543;50.848;4.596;2022-11-14T07:46:11;56.38;;;16.10;;
32026;SDS011;18543;50.848;4.596;2022-11-14T07:48:39;92.00;;;16.98;;
32026;SDS011;18543;50.848;4.596;2022-11-14T07:51:08;53.03;;;14.73;;
32026;SDS011;18543;50.848;4.596;2022-11-14T07:53:39;48.88;;;14.57;;
32026;SDS011;18543;50.848;4.596;2022-11-14T07:56:06;49.70;;;16.17;;
32026;SDS011;18543;50.848;4.596;2022-11-14T07:58:37;61.28;;;17.40;;
32026;SDS011;18543;50.848;4.596;2022-11-14T08:01:05;59.45;;;16.40;;
32026;SDS011;18543;50.848;4.596;2022-11-14T08:03:34;60.28;;;16.25;;
32026;SDS011;18543;50.848;4.596;2022-11-14T08:06:11;58.92;;;15.25;;
32026;SDS011;18543;50.848;4.596;2022-11-14T08:08:39;51.83;;;15.75;;
32026;SDS011;18543;50.848;4.596;2022-11-14T08:11:06;72.47;;;25.38;;
32026;SDS011;18543;50.848;4.596;2022-11-14T08:13:33;49.88;;;20.77;;
32026;SDS011;18543;50.848;4.596;2022-11-14T08:16:04;61.67;;;20.38;;
32026;SDS011;18543;50.848;4.596;2022-11-14T08:18:38;59.10;;;35.08;;
32026;SDS011;18543;50.848;4.596;2022-11-14T08:21:06;49.92;;;21.25;;
32026;SDS011;18543;50.848;4.596;2022-11-14T08:23:35;46.28;;;19.15;;
32026;SDS011;18543;50.848;4.596;2022-11-14T08:26:02;43.70;;;17.85;;
32026;SDS011;18543;50.848;4.596;2022-11-14T08:28:28;46.67;;;17.42;;
32026;SDS011;18543;50.848;4.596;2022-11-14T08:31:00;49.47;;;17.88;;
32026;SDS011;18543;50.848;4.596;2022-11-14T08:33:28;51.03;;;17.35;;
32026;SDS011;18543;50.848;4.596;2022-11-14T08:35:58;42.60;;;16.70;;
32026;SDS011;18543;50.848;4.596;2022-11-14T08:38:32;51.47;;;17.88;;
32026;SDS011;18543;50.848;4.596;2022-11-14T08:40:59;47.78;;;16.65;;
32026;SDS011;18543;50.848;4.596;2022-11-14T08:43:27;43.40;;;17.30;;
32026;SDS011;18543;50.848;4.596;2022-11-14T08:46:00;41.78;;;17.48;;
32026;SDS011;18543;50.848;4.596;2022-11-14T08:48:29;41.13;;;16.08;;
32026;SDS011;18543;50.848;4.596;2022-11-14T08:51:01;43.47;;;16.17;;
32026;SDS011;18543;50.848;4.596;2022-11-14T08:53:30;43.05;;;15.68;;
32026;SDS011;18543;50.848;4.596;2022-11-14T08:55:57;40.13;;;15.50;;
32026;SDS011;18543;50.848;4.596;2022-11-14T08:58:26;44.72;;;17.50;;
32026;SDS011;18543;50.848;4.596;2022-11-14T09:01:03;104.25;;;91.25;;
32026;SDS011;18543;50.848;4.596;2022-11-14T09:03:31;61.03;;;31.92;;
32026;SDS011;18543;50.848;4.596;2022-11-14T09:06:00;49.58;;;28.30;;
32026;SDS011;18543;50.848;4.596;2022-11-14T09:08:28;41.92;;;25.20;;
32026;SDS011;18543;50.848;4.596;2022-11-14T09:10:59;34.33;;;22.92;;
32026;SDS011;18543;50.848;4.596;2022-11-14T09:13:32;38.90;;;23.08;;
32026;SDS011;18543;50.848;4.596;2022-11-14T09:15:59;39.83;;;22.38;;
32026;SDS011;18543;50.848;4.596;2022-11-14T09:18:26;30.38;;;20.10;;
32026;SDS011;18543;50.848;4.596;2022-11-14T09:21:00;32.88;;;22.00;;
32026;SDS011;18543;50.848;4.596;2022-11-14T09:23:29;28.00;;;18.30;;
32026;SDS011;18543;50.848;4.596;2022-11-14T09:25:56;26.40;;;17.20;;
32026;SDS011;18543;50.848;4.596;2022-11-14T09:28:23;25.42;;;17.60;;
32026;SDS011;18543;50.848;4.596;2022-11-14T09:30:50;22.42;;;15.60;;
32026;SDS011;18543;50.848;4.596;2022-11-14T09:33:17;22.98;;;16.15;;
32026;SDS011;18543;50.848;4.596;2022-11-14T09:35:43;24.02;;;18.35;;
32026;SDS011;18543;50.848;4.596;2022-11-14T09:38:11;22.02;;;15.77;;
32026;SDS011;18543;50.848;4.596;2022-11-14T09:46:21;12.85;;;9.55;;
32026;SDS011;18543;50.848;4.596;2022-11-14T09:48:50;22.10;;;12.45;;
32026;SDS011;18543;50.848;4.596;2022-11-14T09:51:20;21.17;;;14.15;;
32026;SDS011;18543;50.848;4.596;2022-11-14T09:56:48;51.70;;;40.78;;
32026;SDS011;18543;50.848;4.596;2022-11-14T09:59:16;30.55;;;22.83;;
32026;SDS011;18543;50.848;4.596;2022-11-14T10:08:02;21.83;;;12.95;;
32026;SDS011;18543;50.848;4.596;2022-11-14T10:21:13;40.13;;;14.80;;
32026;SDS011;18543;50.848;4.596;2022-11-14T10:26:59;24.83;;;12.20;;
32026;SDS011;18543;50.848;4.596;2022-11-14T10:29:48;20.98;;;11.63;;
32026;SDS011;18543;50.848;4.596;2022-11-14T10:32:27;24.77;;;16.17;;
32026;SDS011;18543;50.848;4.596;2022-11-14T10:35:18;25.70;;;13.20;;
32026;SDS011;18543;50.848;4.596;2022-11-14T10:38:13;20.73;;;11.52;;
32026;SDS011;18543;50.848;4.596;2022-11-14T10:40:50;28.67;;;19.85;;
32026;SDS011;18543;50.848;4.596;2022-11-14T10:48:48;17.25;;;11.65;;
32026;SDS011;18543;50.848;4.596;2022-11-14T10:56:46;18.35;;;10.57;;
32026;SDS011;18543;50.848;4.596;2022-11-14T10:59:17;19.50;;;10.77;;
32026;SDS011;18543;50.848;4.596;2022-11-14T11:04:38;19.35;;;11.23;;
32026;SDS011;18543;50.848;4.596;2022-11-14T11:09:34;12.95;;;9.60;;
32026;SDS011;18543;50.848;4.596;2022-11-14T11:12:22;13.13;;;9.60;;
32026;SDS011;18543;50.848;4.596;2022-11-14T11:15:07;14.65;;;10.70;;
32026;SDS011;18543;50.848;4.596;2022-11-14T11:25:37;16.20;;;10.90;;
32026;SDS011;18543;50.848;4.596;2022-11-14T11:28:18;15.32;;;10.70;;
32026;SDS011;18543;50.848;4.596;2022-11-14T11:30:57;19.95;;;12.20;;
32026;SDS011;18543;50.848;4.596;2022-11-14T11:33:30;21.02;;;12.23;;
32026;SDS011;18543;50.848;4.596;2022-11-14T11:36:14;26.42;;;11.02;;
32026;SDS011;18543;50.848;4.596;2022-11-14T11:38:47;15.77;;;9.95;;
32026;SDS011;18543;50.848;4.596;2022-11-14T11:41:30;19.52;;;11.50;;
32026;SDS011;18543;50.848;4.596;2022-11-14T11:44:21;31.83;;;11.82;;
32026;SDS011;18543;50.848;4.596;2022-11-14T11:46:56;36.17;;;12.50;;
32026;SDS011;18543;50.848;4.596;2022-11-14T11:52:12;39.75;;;14.45;;
32026;SDS011;18543;50.848;4.596;2022-11-14T11:54:47;35.95;;;16.70;;
32026;SDS011;18543;50.848;4.596;2022-11-14T11:57:41;44.00;;;16.70;;
32026;SDS011;18543;50.848;4.596;2022-11-14T12:00:14;28.88;;;17.98;;
32026;SDS011;18543;50.848;4.596;2022-11-14T12:02:49;28.77;;;18.75;;
32026;SDS011;18543;50.848;4.596;2022-11-14T12:05:39;41.53;;;17.77;;
32026;SDS011;18543;50.848;4.596;2022-11-14T12:08:25;26.92;;;15.35;;
32026;SDS011;18543;50.848;4.596;2022-11-14T12:11:04;27.30;;;15.30;;
32026;SDS011;18543;50.848;4.596;2022-11-14T12:32:27;34.00;;;21.00;;
32026;SDS011;18543;50.848;4.596;2022-11-14T12:35:13;28.35;;;23.73;;
32026;SDS011;18543;50.848;4.596;2022-11-14T12:37:49;37.83;;;24.38;;
32026;SDS011;18543;50.848;4.596;2022-11-14T12:40:31;28.60;;;23.48;;
32026;SDS011;18543;50.848;4.596;2022-11-14T12:43:01;30.98;;;24.75;;
32026;SDS011;18543;50.848;4.596;2022-11-14T12:48:20;27.77;;;24.77;;
32026;SDS011;18543;50.848;4.596;2022-11-14T12:50:48;27.48;;;23.13;;
32026;SDS011;18543;50.848;4.596;2022-11-14T13:02:39;33.08;;;22.95;;
32026;SDS011;18543;50.848;4.596;2022-11-14T13:10:37;41.55;;;26.70;;
32026;SDS011;18543;50.848;4.596;2022-11-14T13:13:07;30.08;;;20.20;;
32026;SDS011;18543;50.848;4.596;2022-11-14T13:16:00;25.98;;;22.13;;
32026;SDS011;18543;50.848;4.596;2022-11-14T13:30:14;18.73;;;13.87;;
32026;SDS011;18543;50.848;4.596;2022-11-14T13:41:08;15.43;;;11.60;;
32026;SDS011;18543;50.848;4.596;2022-11-14T13:52:25;13.25;;;10.77;;
32026;SDS011;18543;50.848;4.596;2022-11-14T13:54:55;16.58;;;11.00;;
32026;SDS011;18543;50.848;4.596;2022-11-14T14:00:14;12.05;;;9.90;;
32026;SDS011;18543;50.848;4.596;2022-11-14T14:05:33;14.55;;;10.35;;
32026;SDS011;18543;50.848;4.596;2022-11-14T14:08:12;11.57;;;10.35;;
32026;SDS011;18543;50.848;4.596;2022-11-14T14:11:04;12.73;;;9.77;;
32026;SDS011;18543;50.848;4.596;2022-11-14T14:13:33;11.80;;;9.98;;
32026;SDS011;18543;50.848;4.596;2022-11-14T14:21:34;12.18;;;9.82;;
32026;SDS011;18543;50.848;4.596;2022-11-14T14:30:17;10.80;;;9.32;;
32026;SDS011;18543;50.848;4.596;2022-11-14T14:35:34;11.05;;;9.40;;
32026;SDS011;18543;50.848;4.596;2022-11-14T14:38:10;11.15;;;9.32;;
32026;SDS011;18543;50.848;4.596;2022-11-14T14:40:39;11.07;;;9.02;;
32026;SDS011;18543;50.848;4.596;2022-11-14T14:43:11;12.40;;;9.00;;
32026;SDS011;18543;50.848;4.596;2022-11-14T14:45:52;9.98;;;8.40;;
32026;SDS011;18543;50.848;4.596;2022-11-14T14:48:24;10.52;;;8.35;;
32026;SDS011;18543;50.848;4.596;2022-11-14T14:50:54;10.77;;;8.50;;
32026;SDS011;18543;50.848;4.596;2022-11-14T14:53:27;15.40;;;8.98;;
32026;SDS011;18543;50.848;4.596;2022-11-14T14:55:56;10.20;;;8.20;;
32026;SDS011;18543;50.848;4.596;2022-11-14T14:58:31;13.75;;;9.10;;
32026;SDS011;18543;50.848;4.596;2022-11-14T15:04:05;13.25;;;8.70;;
32026;SDS011;18543;50.848;4.596;2022-11-14T15:06:37;12.68;;;8.13;;
32026;SDS011;18543;50.848;4.596;2022-11-14T15:09:21;11.57;;;9.07;;
32026;SDS011;18543;50.848;4.596;2022-11-14T15:11:54;11.30;;;9.05;;
32026;SDS011;18543;50.848;4.596;2022-11-14T15:14:30;10.88;;;7.95;;
32026;SDS011;18543;50.848;4.596;2022-11-14T15:17:00;10.38;;;8.45;;
32026;SDS011;18543;50.848;4.596;2022-11-14T15:19:31;10.55;;;8.30;;
32026;SDS011;18543;50.848;4.596;2022-11-14T15:22:26;10.43;;;7.95;;
32026;SDS011;18543;50.848;4.596;2022-11-14T15:27:52;9.52;;;7.85;;
32026;SDS011;18543;50.848;4.596;2022-11-14T15:30:27;9.45;;;7.90;;
32026;SDS011;18543;50.848;4.596;2022-11-14T15:32:57;10.20;;;8.00;;
32026;SDS011;18543;50.848;4.596;2022-11-14T15:35:33;10.10;;;8.10;;
32026;SDS011;18543;50.848;4.596;2022-11-14T15:38:02;12.40;;;8.20;;
32026;SDS011;18543;50.848;4.596;2022-11-14T15:48:59;10.63;;;8.05;;
32026;SDS011;18543;50.848;4.596;2022-11-14T15:56:53;7.95;;;6.85;;
32026;SDS011;18543;50.848;4.596;2022-11-14T15:59:25;9.32;;;7.38;;
32026;SDS011;18543;50.848;4.596;2022-11-14T16:04:56;9.52;;;7.10;;
32026;SDS011;18543;50.848;4.596;2022-11-14T16:07:24;9.10;;;7.88;;
32026;SDS011;18543;50.848;4.596;2022-11-14T16:09:51;8.85;;;7.13;;
32026;SDS011;18543;50.848;4.596;2022-11-14T16:12:18;10.38;;;8.40;;
32026;SDS011;18543;50.848;4.596;2022-11-14T16:14:44;13.02;;;7.47;;
32026;SDS011;18543;50.848;4.596;2022-11-14T16:17:13;12.75;;;7.60;;
32026;SDS011;18543;50.848;4.596;2022-11-14T16:19:41;13.50;;;7.15;;
32026;SDS011;18543;50.848;4.596;2022-11-14T16:22:10;10.82;;;7.53;;
32026;SDS011;18543;50.848;4.596;2022-11-14T16:24:39;8.50;;;7.40;;
32026;SDS011;18543;50.848;4.596;2022-11-14T16:27:06;10.68;;;7.00;;
32026;SDS011;18543;50.848;4.596;2022-11-14T16:29:34;10.75;;;7.65;;
32026;SDS011;18543;50.848;4.596;2022-11-14T16:32:01;8.85;;;7.15;;
32026;SDS011;18543;50.848;4.596;2022-11-14T16:34:28;8.77;;;7.47;;
32026;SDS011;18543;50.848;4.596;2022-11-14T16:36:59;8.63;;;7.60;;
32026;SDS011;18543;50.848;4.596;2022-11-14T16:39:27;10.13;;;7.72;;
32026;SDS011;18543;50.848;4.596;2022-11-14T16:42:01;9.38;;;6.78;;
32026;SDS011;18543;50.848;4.596;2022-11-14T16:44:28;9.52;;;7.28;;
32026;SDS011;18543;50.848;4.596;2022-11-14T16:47:02;8.35;;;6.90;;
32026;SDS011;18543;50.848;4.596;2022-11-14T16:49:31;9.55;;;7.30;;
32026;SDS011;18543;50.848;4.596;2022-11-14T16:51:58;9.35;;;7.03;;
32026;SDS011;18543;50.848;4.596;2022-11-14T16:54:32;11.18;;;6.78;;
32026;SDS011;18543;50.848;4.596;2022-11-14T16:56:59;10.25;;;7.03;;
32026;SDS011;18543;50.848;4.596;2022-11-14T16:59:25;7.78;;;6.32;;
32026;SDS011;18543;50.848;4.596;2022-11-14T17:01:52;8.98;;;7.30;;
32026;SDS011;18543;50.848;4.596;2022-11-14T17:04:19;9.77;;;7.07;;
32026;SDS011;18543;50.848;4.596;2022-11-14T17:06:46;10.20;;;6.80;;
32026;SDS011;18543;50.848;4.596;2022-11-14T17:09:13;8.75;;;6.72;;
32026;SDS011;18543;50.848;4.596;2022-11-14T17:11:40;7.95;;;7.15;;
32026;SDS011;18543;50.848;4.596;2022-11-14T17:14:06;8.23;;;6.60;;
32026;SDS011;18543;50.848;4.596;2022-11-14T17:16:33;10.65;;;6.90;;
32026;SDS011;18543;50.848;4.596;2022-11-14T17:19:00;9.27;;;6.93;;
32026;SDS011;18543;50.848;4.596;2022-11-14T17:21:27;7.32;;;6.38;;
32026;SDS011;18543;50.848;4.596;2022-11-14T17:23:54;7.60;;;6.15;;
32026;SDS011;18543;50.848;4.596;2022-11-14T17:26:28;8.48;;;6.40;;
32026;SDS011;18543;50.848;4.596;2022-11-14T17:28:55;8.38;;;6.70;;
32026;SDS011;18543;50.848;4.596;2022-11-14T17:31:22;11.32;;;6.72;;
32026;SDS011;18543;50.848;4.596;2022-11-14T17:33:49;8.63;;;6.88;;
32026;SDS011;18543;50.848;4.596;2022-11-14T17:36:17;7.47;;;6.78;;
32026;SDS011;18543;50.848;4.596;2022-11-14T17:38:44;7.90;;;6.80;;
32026;SDS011;18543;50.848;4.596;2022-11-14T17:41:11;9.00;;;7.32;;